createdAt,value
2023-07-10T00:01:30.732Z,51.80
2023-07-10T00:03:57.893Z,51.80
2023-07-10T00:06:25.468Z,51.80
2023-07-10T00:08:52.365Z,51.80
2023-07-10T00:11:23.180Z,51.80
2023-07-10T00:13:50.622Z,51.80
2023-07-10T00:16:21.086Z,51.70
2023-07-10T00:18:49.556Z,51.80
2023-07-10T00:21:16.875Z,51.70
2023-07-10T00:23:43.685Z,51.80
2023-07-10T00:26:23.377Z,51.80
2023-07-10T00:28:52.200Z,51.80
2023-07-10T00:31:19.137Z,52.40
2023-07-10T00:33:48.507Z,51.80
2023-07-10T00:36:28.392Z,51.80
2023-07-10T00:38:55.608Z,51.80
2023-07-10T00:41:30.479Z,51.80
2023-07-10T00:44:01.652Z,51.80
2023-07-10T00:46:40.033Z,51.80
2023-07-10T00:49:36.429Z,51.80
2023-07-10T00:52:19.499Z,51.80
2023-07-10T00:54:49.821Z,51.80
2023-07-10T00:57:23.321Z,51.80
2023-07-10T00:59:52.165Z,51.80
2023-07-10T01:02:21.551Z,51.80
2023-07-10T01:04:56.302Z,51.80
2023-07-10T01:07:25.586Z,51.80
2023-07-10T01:09:58.574Z,51.80
2023-07-10T01:12:27.335Z,51.70
2023-07-10T01:14:54.196Z,51.70
2023-07-10T01:17:21.218Z,51.90
2023-07-10T01:19:48.960Z,51.90
2023-07-10T01:22:16.740Z,52.10
2023-07-10T01:24:43.714Z,52.20
2023-07-10T01:27:14.227Z,52.40
2023-07-10T01:29:48.470Z,52.30
2023-07-10T01:32:20.874Z,52.60
2023-07-10T01:35:06.131Z,52.90
2023-07-10T01:37:33.066Z,53.10
2023-07-10T01:39:59.880Z,53.20
2023-07-10T01:42:26.838Z,53.00
2023-07-10T01:44:54.110Z,53.00
2023-07-10T01:47:21.663Z,53.10
2023-07-10T01:49:51.128Z,53.00
2023-07-10T01:52:20.626Z,53.10
2023-07-10T01:54:47.660Z,52.90
2023-07-10T01:57:16.273Z,53.20
2023-07-10T01:59:43.395Z,53.50
2023-07-10T02:02:10.501Z,53.80
2023-07-10T02:04:37.788Z,54.30
2023-07-10T02:07:05.120Z,54.70
2023-07-10T02:09:33.385Z,55.10
2023-07-10T02:12:02.104Z,55.00
2023-07-10T02:14:30.318Z,55.10
2023-07-10T02:16:57.145Z,55.00
2023-07-10T02:19:24.068Z,55.00
2023-07-10T02:21:51.298Z,55.10
2023-07-10T02:24:18.198Z,54.90
2023-07-10T02:26:45.262Z,54.60
2023-07-10T02:29:12.213Z,54.10
2023-07-10T02:31:39.106Z,54.00
2023-07-10T02:34:06.074Z,53.60
2023-07-10T02:36:34.494Z,53.50
2023-07-10T02:39:01.368Z,53.40
2023-07-10T02:41:28.278Z,53.20
2023-07-10T02:43:55.074Z,53.20
2023-07-10T02:46:21.998Z,53.20
2023-07-10T02:48:50.034Z,53.20
2023-07-10T02:51:16.908Z,53.50
2023-07-10T02:53:43.707Z,53.70
2023-07-10T02:56:10.572Z,53.70
2023-07-10T02:58:37.459Z,53.70
2023-07-10T03:01:04.808Z,53.60
2023-07-10T03:03:31.822Z,53.50
2023-07-10T03:06:03.642Z,53.50
2023-07-10T03:08:31.359Z,53.50
2023-07-10T03:11:07.157Z,53.60
2023-07-10T03:13:34.410Z,53.50
2023-07-10T03:16:10.120Z,53.40
2023-07-10T03:18:38.102Z,53.30
2023-07-10T03:21:05.728Z,53.20
2023-07-10T03:23:32.603Z,53.10
2023-07-10T03:25:59.570Z,53.40
2023-07-10T03:28:26.767Z,53.30
2023-07-10T03:30:53.640Z,53.40
2023-07-10T03:33:20.976Z,53.80
2023-07-10T03:35:49.985Z,53.90
2023-07-10T03:38:18.004Z,54.20
2023-07-10T03:40:56.977Z,54.90
2023-07-10T03:43:24.646Z,54.80
2023-07-10T03:45:52.042Z,54.80
2023-07-10T03:48:18.862Z,55.40
2023-07-10T03:50:46.178Z,55.80
2023-07-10T03:53:13.269Z,55.90
2023-07-10T03:55:51.936Z,55.80
2023-07-10T03:58:33.378Z,55.70
2023-07-10T04:01:01.779Z,55.60
2023-07-10T04:03:31.669Z,55.70
2023-07-10T04:05:59.590Z,55.90
2023-07-10T04:08:31.729Z,55.80
2023-07-10T04:11:04.231Z,55.80
2023-07-10T04:13:31.422Z,55.80
2023-07-10T04:16:21.914Z,55.80
2023-07-10T04:18:50.797Z,56.00
2023-07-10T04:21:20.889Z,56.00
2023-07-10T04:23:48.433Z,56.10
2023-07-10T04:26:17.075Z,56.20
2023-07-10T04:28:48.111Z,56.30
2023-07-10T04:31:16.310Z,56.40
2023-07-10T04:33:43.698Z,56.30
2023-07-10T04:36:10.643Z,56.20
2023-07-10T04:38:37.663Z,56.20
2023-07-10T04:41:06.907Z,56.30
2023-07-10T04:43:35.348Z,56.10
2023-07-10T04:46:05.296Z,56.00
2023-07-10T04:48:33.083Z,56.00
2023-07-10T04:51:04.859Z,56.50
2023-07-10T04:53:33.480Z,56.60
2023-07-10T04:56:03.066Z,56.70
2023-07-10T04:58:30.324Z,56.60
2023-07-10T05:00:59.162Z,56.50
2023-07-10T05:03:27.005Z,56.60
2023-07-10T05:05:57.909Z,56.70
2023-07-10T05:08:26.441Z,56.80
2023-07-10T05:10:55.518Z,57.00
2023-07-10T05:13:26.558Z,57.20
2023-07-10T05:15:56.274Z,57.30
2023-07-10T05:18:23.572Z,57.30
2023-07-10T05:20:50.537Z,57.20
2023-07-10T05:23:17.896Z,57.60
2023-07-10T05:26:06.807Z,57.70
2023-07-10T05:28:35.364Z,57.70
2023-07-10T05:31:05.602Z,57.80
2023-07-10T05:33:32.609Z,57.60
2023-07-10T05:36:03.683Z,57.60
2023-07-10T05:38:33.492Z,57.70
2023-07-10T05:41:01.179Z,57.80
2023-07-10T05:43:30.565Z,57.70
2023-07-10T05:45:57.807Z,57.30
2023-07-10T05:48:25.005Z,57.20
2023-07-10T05:50:52.027Z,57.00
2023-07-10T05:53:19.164Z,57.70
2023-07-10T05:55:48.125Z,57.30
2023-07-10T05:58:17.559Z,57.30
2023-07-10T06:00:44.942Z,57.50
2023-07-10T06:03:12.039Z,57.40
2023-07-10T06:05:39.086Z,57.50
2023-07-10T06:08:06.794Z,57.30
2023-07-10T06:10:36.888Z,56.90
2023-07-10T06:13:04.020Z,56.60
2023-07-10T06:15:31.528Z,56.40
2023-07-10T06:17:58.521Z,56.40
2023-07-10T06:20:25.347Z,56.10
2023-07-10T06:22:52.194Z,56.00
2023-07-10T06:25:19.024Z,55.90
2023-07-10T06:27:45.895Z,55.50
2023-07-10T06:30:12.963Z,55.40
2023-07-10T06:32:40.984Z,54.80
2023-07-10T06:35:08.188Z,54.70
2023-07-10T06:37:35.022Z,54.50
2023-07-10T06:40:06.296Z,54.80
2023-07-10T06:42:33.188Z,54.70
2023-07-10T06:44:59.993Z,54.60
2023-07-10T06:47:26.928Z,54.60
2023-07-10T06:49:53.951Z,54.60
2023-07-10T06:52:20.986Z,54.70
2023-07-10T06:54:47.876Z,54.60
2023-07-10T06:57:14.674Z,54.70
2023-07-10T06:59:41.440Z,54.70
2023-07-10T07:02:12.470Z,54.60
2023-07-10T07:04:39.652Z,55.50
2023-07-10T07:07:06.533Z,54.40
2023-07-10T07:09:33.363Z,54.30
2023-07-10T07:12:00.584Z,54.10
2023-07-10T07:14:28.051Z,53.00
2023-07-10T07:16:55.333Z,52.70
2023-07-10T07:19:22.264Z,52.70
2023-07-10T07:21:49.193Z,52.10
2023-07-10T07:24:16.340Z,51.20
2023-07-10T07:26:43.559Z,51.20
2023-07-10T07:29:10.760Z,51.30
2023-07-10T07:31:40.711Z,51.50
2023-07-10T07:34:07.749Z,51.70
2023-07-10T07:36:35.683Z,51.60
2023-07-10T07:39:04.267Z,52.20
2023-07-10T07:41:35.262Z,52.60
2023-07-10T07:44:02.887Z,52.30
2023-07-10T07:46:30.515Z,51.60
2023-07-10T07:48:57.881Z,51.50
2023-07-10T07:51:24.684Z,51.60
2023-07-10T07:54:06.648Z,51.30
2023-07-10T07:56:33.815Z,51.30
2023-07-10T07:59:00.831Z,51.50
2023-07-10T08:01:27.842Z,51.60
2023-07-10T08:03:54.861Z,51.00
2023-07-10T08:06:22.301Z,50.90
2023-07-10T08:08:49.165Z,51.00
2023-07-10T08:11:17.139Z,51.30
2023-07-10T08:13:44.700Z,51.40
2023-07-10T08:16:11.673Z,51.50
2023-07-10T08:18:38.523Z,51.40
2023-07-10T08:21:07.087Z,50.80
2023-07-10T08:23:34.310Z,50.30
2023-07-10T08:26:02.370Z,50.60
2023-07-10T08:28:29.755Z,50.60
2023-07-10T08:30:56.573Z,50.70
2023-07-10T08:33:23.420Z,49.80
2023-07-10T08:35:56.873Z,49.40
2023-07-10T08:38:24.040Z,49.40
2023-07-10T08:40:53.619Z,49.40
2023-07-10T08:43:26.885Z,49.60
2023-07-10T08:46:02.693Z,49.40
2023-07-10T08:48:37.636Z,49.30
2023-07-10T08:51:30.740Z,48.80
2023-07-10T08:54:07.705Z,48.60
2023-07-10T08:56:43.703Z,48.00
2023-07-10T08:59:36.453Z,47.80
2023-07-10T09:02:04.133Z,48.10
2023-07-10T09:04:32.751Z,48.90
2023-07-10T09:07:02.700Z,49.10
2023-07-10T09:09:35.599Z,48.50
2023-07-10T09:12:13.624Z,48.40
2023-07-10T09:14:47.675Z,47.70
2023-07-10T09:17:24.925Z,48.60
2023-07-10T09:19:55.005Z,48.70
2023-07-10T09:22:22.558Z,49.10
2023-07-10T09:24:49.390Z,48.40
2023-07-10T09:27:16.306Z,48.00
2023-07-10T09:29:46.356Z,47.80
2023-07-10T09:32:19.119Z,47.40
2023-07-10T09:34:55.301Z,46.00
2023-07-10T09:37:27.366Z,45.30
2023-07-10T09:39:54.259Z,45.00
2023-07-10T09:42:27.581Z,44.70
2023-07-10T09:44:56.203Z,44.90
2023-07-10T09:47:23.983Z,45.00
2023-07-10T09:49:57.683Z,45.70
2023-07-10T09:52:28.951Z,45.20
2023-07-10T09:55:16.583Z,44.90
2023-07-10T09:58:02.182Z,44.40
2023-07-10T10:00:31.703Z,43.80
2023-07-10T10:03:13.317Z,43.90
2023-07-10T10:05:43.288Z,42.80
2023-07-10T10:08:22.085Z,43.50
2023-07-10T10:11:07.711Z,42.90
2023-07-10T10:13:44.144Z,42.60
2023-07-10T10:16:23.326Z,41.30
2023-07-10T10:18:58.941Z,41.50
2023-07-10T10:21:33.890Z,42.00
2023-07-10T10:24:06.632Z,42.40
2023-07-10T10:26:39.569Z,42.30
2023-07-10T10:29:29.226Z,42.00
2023-07-10T10:32:10.071Z,41.80
2023-07-10T10:34:50.622Z,40.70
2023-07-10T10:37:36.420Z,40.60
2023-07-10T10:40:24.436Z,40.60
2023-07-10T10:42:57.634Z,39.70
2023-07-10T10:45:47.180Z,38.70
2023-07-10T10:48:27.053Z,38.60
2023-07-10T10:51:08.416Z,38.60
2023-07-10T10:53:57.380Z,37.80
2023-07-10T10:56:27.092Z,37.80
2023-07-10T10:59:13.637Z,37.70
2023-07-10T11:01:46.539Z,37.60
2023-07-10T11:04:37.385Z,37.10
2023-07-10T11:07:11.984Z,35.60
2023-07-10T11:09:43.613Z,36.40
2023-07-10T11:12:32.737Z,36.60
2023-07-10T11:15:17.554Z,37.20
2023-07-10T11:17:47.970Z,36.40
2023-07-10T11:20:17.065Z,36.00
2023-07-10T11:22:52.307Z,36.20
2023-07-10T11:25:40.987Z,34.50
2023-07-10T11:28:21.252Z,34.00
2023-07-10T11:31:11.113Z,34.00
2023-07-10T11:33:37.939Z,35.40
2023-07-10T11:36:18.295Z,34.20
2023-07-10T11:39:07.193Z,33.20
2023-07-10T11:41:39.036Z,33.30
2023-07-10T11:44:22.703Z,34.00
2023-07-10T11:47:09.833Z,33.50
2023-07-10T11:49:37.090Z,33.00
2023-07-10T11:52:16.328Z,33.50
2023-07-10T11:54:44.868Z,33.30
2023-07-10T11:57:23.798Z,32.20
2023-07-10T11:59:57.280Z,32.30
2023-07-10T12:02:52.888Z,32.20
2023-07-10T12:05:24.312Z,32.70
2023-07-10T12:08:00.413Z,32.70
2023-07-10T12:10:32.333Z,31.80
2023-07-10T12:13:24.134Z,31.70
2023-07-10T12:15:53.967Z,30.70
2023-07-10T12:18:26.864Z,31.00
2023-07-10T12:20:54.933Z,30.80
2023-07-10T12:23:22.346Z,31.30
2023-07-10T12:25:54.602Z,31.80
2023-07-10T12:28:27.823Z,31.60
2023-07-10T12:30:58.518Z,30.70
2023-07-10T12:33:41.721Z,30.60
2023-07-10T12:36:29.947Z,30.00
2023-07-10T12:39:00.399Z,29.90
2023-07-10T12:41:38.803Z,30.00
2023-07-10T12:44:06.532Z,30.90
2023-07-10T12:46:35.475Z,30.00
2023-07-10T12:49:11.049Z,30.00
2023-07-10T12:51:43.050Z,30.00
2023-07-10T12:54:32.080Z,30.00
2023-07-10T12:56:59.143Z,29.30
2023-07-10T12:59:25.962Z,29.30
2023-07-10T13:02:15.200Z,29.20
2023-07-10T13:04:48.585Z,28.60
2023-07-10T13:07:29.329Z,28.80
2023-07-10T13:10:21.544Z,29.40
2023-07-10T13:12:51.104Z,29.60
2023-07-10T13:15:19.465Z,29.10
2023-07-10T13:17:54.366Z,29.30
2023-07-10T13:20:25.117Z,28.50
2023-07-10T13:22:53.469Z,28.20
2023-07-10T13:25:20.393Z,28.80
2023-07-10T13:27:47.384Z,28.80
2023-07-10T13:30:19.053Z,29.30
2023-07-10T13:32:46.282Z,28.60
2023-07-10T13:35:14.191Z,28.50
2023-07-10T13:37:41.436Z,28.60
2023-07-10T13:40:16.491Z,28.50
2023-07-10T13:42:43.327Z,28.10
2023-07-10T13:45:10.557Z,28.20
2023-07-10T13:47:37.684Z,28.20
2023-07-10T13:50:05.089Z,28.40
2023-07-10T13:52:32.700Z,28.90
2023-07-10T13:54:59.618Z,28.50
2023-07-10T13:57:30.445Z,28.40
2023-07-10T14:00:00.734Z,28.10
2023-07-10T14:02:29.803Z,28.50
2023-07-10T14:04:58.147Z,28.30
2023-07-10T14:07:27.370Z,28.10
2023-07-10T14:09:55.453Z,28.30
2023-07-10T14:12:27.889Z,28.50
2023-07-10T14:14:57.509Z,28.40
2023-07-10T14:17:32.534Z,28.30
2023-07-10T14:20:00.453Z,28.50
2023-07-10T14:22:27.602Z,28.60
2023-07-10T14:24:54.718Z,28.40
2023-07-10T14:27:24.536Z,28.60
2023-07-10T14:29:53.293Z,28.90
2023-07-10T14:32:26.366Z,28.90
2023-07-10T14:34:53.186Z,28.10
2023-07-10T14:37:27.420Z,27.80
2023-07-10T14:39:54.632Z,28.30
2023-07-10T14:42:25.434Z,28.20
2023-07-10T14:44:52.649Z,28.20
2023-07-10T14:47:29.966Z,28.30
2023-07-10T14:49:56.850Z,28.10
2023-07-10T14:52:27.496Z,28.20
2023-07-10T14:54:57.986Z,27.60
2023-07-10T14:57:36.404Z,28.10
2023-07-10T15:00:22.150Z,28.10
2023-07-10T15:02:49.285Z,27.80
2023-07-10T15:05:16.494Z,27.70
2023-07-10T15:07:44.831Z,27.60
2023-07-10T15:10:26.568Z,27.60
2023-07-10T15:13:01.391Z,27.30
2023-07-10T15:15:36.736Z,28.00
2023-07-10T15:18:05.040Z,27.60
2023-07-10T15:20:31.973Z,27.40
2023-07-10T15:22:58.843Z,27.40
2023-07-10T15:25:30.204Z,27.40
2023-07-10T15:27:57.290Z,27.60
2023-07-10T15:30:27.778Z,27.80
2023-07-10T15:32:55.102Z,27.70
2023-07-10T15:35:23.507Z,27.40
2023-07-10T15:37:50.389Z,27.60
2023-07-10T15:40:19.695Z,27.20
2023-07-10T15:42:48.663Z,26.90
2023-07-10T15:45:17.858Z,26.70
2023-07-10T15:47:50.561Z,26.70
2023-07-10T15:50:18.930Z,26.70
2023-07-10T15:52:49.824Z,26.60
2023-07-10T15:55:36.084Z,26.80
2023-07-10T15:58:05.836Z,26.70
2023-07-10T16:00:38.733Z,26.50
2023-07-10T16:03:35.005Z,26.30
2023-07-10T16:06:04.355Z,26.30
2023-07-10T16:08:35.830Z,26.20
2023-07-10T16:11:15.890Z,26.40
2023-07-10T16:13:43.626Z,26.50
2023-07-10T16:16:10.857Z,26.60
2023-07-10T16:18:37.933Z,26.70
2023-07-10T16:21:20.924Z,26.30
2023-07-10T16:23:48.016Z,26.90
2023-07-10T16:26:16.649Z,26.20
2023-07-10T16:28:43.796Z,26.80
2023-07-10T16:31:16.594Z,26.90
2023-07-10T16:33:44.279Z,26.40
2023-07-10T16:36:15.878Z,26.20
2023-07-10T16:38:43.055Z,26.10
2023-07-10T16:41:21.152Z,26.20
2023-07-10T16:43:48.980Z,26.10
2023-07-10T16:46:16.921Z,26.40
2023-07-10T16:48:45.423Z,26.20
2023-07-10T16:51:23.045Z,26.10
2023-07-10T16:53:50.401Z,26.30
2023-07-10T16:56:20.036Z,25.90
2023-07-10T16:58:47.250Z,25.70
2023-07-10T17:01:28.909Z,25.60
2023-07-10T17:03:59.264Z,25.10
2023-07-10T17:06:28.685Z,25.40
2023-07-10T17:08:56.052Z,25.90
2023-07-10T17:11:31.970Z,25.80
2023-07-10T17:14:00.025Z,25.60
2023-07-10T17:16:27.667Z,25.90
2023-07-10T17:18:54.565Z,26.10
2023-07-10T17:21:21.772Z,25.60
2023-07-10T17:23:48.640Z,24.40
2023-07-10T17:26:20.287Z,24.20
2023-07-10T17:28:48.268Z,24.50
2023-07-10T17:31:20.113Z,24.50
2023-07-10T17:33:49.571Z,24.80
2023-07-10T17:36:18.093Z,24.40
2023-07-10T17:38:45.284Z,24.00
2023-07-10T17:41:21.816Z,24.20
2023-07-10T17:43:58.593Z,24.70
2023-07-10T17:46:25.671Z,24.80
2023-07-10T17:48:52.926Z,25.10
2023-07-10T17:51:29.660Z,24.80
2023-07-10T17:53:57.776Z,24.10
2023-07-10T17:56:25.923Z,23.90
2023-07-10T17:58:56.370Z,24.00
2023-07-10T18:01:26.492Z,23.90
2023-07-10T18:03:57.721Z,24.00
2023-07-10T18:06:25.694Z,24.00
2023-07-10T18:08:52.772Z,24.20
2023-07-10T18:11:32.720Z,24.20
2023-07-10T18:14:00.496Z,24.60
2023-07-10T18:16:27.633Z,24.60
2023-07-10T18:18:54.478Z,24.10
2023-07-10T18:21:30.166Z,24.10
2023-07-10T18:23:59.226Z,24.00
2023-07-10T18:26:29.401Z,24.00
2023-07-10T18:28:57.008Z,24.30
2023-07-10T18:31:28.948Z,24.80
2023-07-10T18:33:56.412Z,25.50
2023-07-10T18:36:25.590Z,25.60
2023-07-10T18:38:53.064Z,25.80
2023-07-10T18:41:23.772Z,26.10
2023-07-10T18:43:52.935Z,26.30
2023-07-10T18:46:22.698Z,26.00
2023-07-10T18:48:50.079Z,26.00
2023-07-10T18:51:24.250Z,26.40
2023-07-10T18:53:52.516Z,26.50
2023-07-10T18:56:19.981Z,27.10
2023-07-10T18:58:48.351Z,27.10
2023-07-10T19:01:20.352Z,27.10
2023-07-10T19:03:47.933Z,27.40
2023-07-10T19:06:28.360Z,27.70
2023-07-10T19:08:55.673Z,28.10
2023-07-10T19:11:22.543Z,28.40
2023-07-10T19:13:49.522Z,28.50
2023-07-10T19:16:28.714Z,28.50
2023-07-10T19:19:00.187Z,28.70
2023-07-10T19:21:28.139Z,28.80
2023-07-10T19:23:55.149Z,29.20
2023-07-10T19:26:23.309Z,29.60
2023-07-10T19:28:51.225Z,29.80
2023-07-10T19:31:22.589Z,30.00
2023-07-10T19:33:50.913Z,30.20
2023-07-10T19:36:29.525Z,30.20
2023-07-10T19:38:57.688Z,30.20
2023-07-10T19:41:24.877Z,30.20
2023-07-10T19:43:51.745Z,30.50
2023-07-10T19:46:22.450Z,30.90
2023-07-10T19:48:49.472Z,31.00
2023-07-10T19:51:16.796Z,31.10
2023-07-10T19:53:43.795Z,31.90
2023-07-10T19:56:21.842Z,31.30
2023-07-10T19:58:51.443Z,31.30
2023-07-10T20:01:19.854Z,31.20
2023-07-10T20:03:47.353Z,31.20
2023-07-10T20:06:27.098Z,31.40
2023-07-10T20:08:53.984Z,31.60
2023-07-10T20:11:22.223Z,31.80
2023-07-10T20:13:49.259Z,31.80
2023-07-10T20:16:25.266Z,31.90
2023-07-10T20:18:52.831Z,31.80
2023-07-10T20:21:19.783Z,31.50
2023-07-10T20:23:46.624Z,31.50
2023-07-10T20:26:16.770Z,32.50
2023-07-10T20:28:44.526Z,31.70
2023-07-10T20:31:13.453Z,31.90
2023-07-10T20:33:40.999Z,32.10
2023-07-10T20:36:22.361Z,32.10
2023-07-10T20:38:51.644Z,32.40
2023-07-10T20:41:21.153Z,32.90
2023-07-10T20:43:49.248Z,33.10
2023-07-10T20:46:22.567Z,33.40
2023-07-10T20:48:53.188Z,33.70
2023-07-10T20:51:27.996Z,33.70
2023-07-10T20:53:56.971Z,33.60
2023-07-10T20:56:28.275Z,33.70
2023-07-10T20:58:57.217Z,33.60
2023-07-10T21:01:26.618Z,33.50
2023-07-10T21:03:53.830Z,33.50
2023-07-10T21:06:26.456Z,33.50
2023-07-10T21:08:55.619Z,33.50
2023-07-10T21:11:25.196Z,33.50
2023-07-10T21:13:53.814Z,33.50
2023-07-10T21:16:23.900Z,33.80
2023-07-10T21:18:51.574Z,34.00
2023-07-10T21:21:18.970Z,33.90
2023-07-10T21:23:47.432Z,33.80
2023-07-10T21:26:23.046Z,34.60
2023-07-10T21:28:52.660Z,34.00
2023-07-10T21:31:25.474Z,34.20
2023-07-10T21:33:54.633Z,34.30
2023-07-10T21:36:22.568Z,34.30
2023-07-10T21:38:49.915Z,34.60
2023-07-10T21:41:27.058Z,34.90
2023-07-10T21:43:55.652Z,35.10
2023-07-10T21:46:32.913Z,35.40
2023-07-10T21:49:00.417Z,35.30
2023-07-10T21:51:28.636Z,35.60
2023-07-10T21:53:55.660Z,35.50
2023-07-10T21:56:28.131Z,35.90
2023-07-10T21:59:00.818Z,36.00
2023-07-10T22:01:30.636Z,36.10
2023-07-10T22:03:58.414Z,36.00
2023-07-10T22:06:27.861Z,36.10
2023-07-10T22:08:54.776Z,36.10
2023-07-10T22:11:27.103Z,36.30
2023-07-10T22:13:54.160Z,36.40
2023-07-10T22:16:26.676Z,36.50
2023-07-10T22:18:55.187Z,36.50
2023-07-10T22:21:24.285Z,37.10
2023-07-10T22:23:51.131Z,37.30
2023-07-10T22:26:18.647Z,37.50
2023-07-10T22:28:46.306Z,37.40
2023-07-10T22:31:20.057Z,37.40
2023-07-10T22:33:47.602Z,37.50
2023-07-10T22:36:16.092Z,37.50
2023-07-10T22:38:44.100Z,37.50
2023-07-10T22:41:21.204Z,37.50
2023-07-10T22:43:50.512Z,37.50
2023-07-10T22:46:28.382Z,37.40
2023-07-10T22:49:00.073Z,37.50
2023-07-10T22:51:30.987Z,37.50
2023-07-10T22:53:59.186Z,37.50
2023-07-10T22:56:29.789Z,38.20
2023-07-10T22:58:56.972Z,37.50
2023-07-10T23:01:25.215Z,37.40
2023-07-10T23:03:53.655Z,37.50
2023-07-10T23:06:22.145Z,37.50
2023-07-10T23:08:50.332Z,37.40
2023-07-10T23:11:17.454Z,37.40
2023-07-10T23:13:47.557Z,37.40
2023-07-10T23:16:17.141Z,37.40
2023-07-10T23:18:53.028Z,37.40
2023-07-10T23:21:20.645Z,36.90
2023-07-10T23:23:47.406Z,37.90
2023-07-10T23:26:16.417Z,38.10
2023-07-10T23:28:43.194Z,38.20
2023-07-10T23:31:25.024Z,38.00
2023-07-10T23:33:52.370Z,38.30
2023-07-10T23:36:21.060Z,38.30
2023-07-10T23:38:48.171Z,39.10
2023-07-10T23:41:15.983Z,38.60
2023-07-10T23:43:43.205Z,38.70
2023-07-10T23:46:10.471Z,38.60
2023-07-10T23:48:37.460Z,38.70
2023-07-10T23:51:04.601Z,38.70
2023-07-10T23:53:31.849Z,38.90
2023-07-10T23:55:59.159Z,39.00
2023-07-10T23:58:26.355Z,39.80
